Time;durP1;ratioP1;P1;durP2;ratioP2;P2;SDS_P1;SDS_P2;PMS_P1;PMS_P2;Temp;Humidity;BMP_temperature;BMP_pressure;BME280_temperature;BME280_humidity;BME280_pressure;Samples;Min_cycle;Max_cycle;Signal;HPM_P1;HPM_P2
2023/05/20 00:00:31;;;;;;;;;;;;;;;11.88;94.02;95472.56;5074657;28;1024;-53
2023/05/20 00:02:59;;;;;;;;;;;;;;;11.77;92.88;95486.25;5074484;28;1021;-54
2023/05/20 00:05:25;;;;;;;;;;;;;;;11.76;92.84;95481.06;5074351;28;1039;-54
2023/05/20 00:07:51;;;;;;;;;;;;;;;11.76;92.89;95471.19;5074252;28;1042;-53
2023/05/20 00:10:17;;;;;;;;;;;;;;;11.77;92.49;95472.03;5073996;28;1524;-54
2023/05/20 00:12:43;;;;;;;;;;;;;;;11.72;93.76;95469.81;5074294;28;1071;-53
2023/05/20 00:15:11;;;;;;;;;;;;;;;11.70;93.40;95471.81;5074291;28;1009;-53
2023/05/20 00:17:37;;;;;;;;;;;;;;;11.67;93.64;95475.66;5074153;28;1914;-53
2023/05/20 00:20:04;;;;;;;;;;;;;;;11.72;92.98;95468.00;5074042;28;989;-53
2023/05/20 00:22:30;;;;;;;;;;;;;;;11.72;93.11;95465.31;5074203;28;1009;-53
2023/05/20 00:24:56;;;;;;;;;;;;;;;11.65;93.69;95458.91;5074222;28;1018;-54
2023/05/20 00:27:22;;;;;;;;;;;;;;;11.33;94.51;95464.94;5073701;28;1100;-53
2023/05/20 00:29:48;;;;;;;;;;;;;;;11.20;94.01;95468.03;5074141;28;1018;-53
2023/05/20 00:32:14;;;;;;;;;;;;;;;11.33;94.44;95472.97;5073893;28;1005;-53
2023/05/20 00:34:42;;;;;;;;;;;;;;;11.43;93.98;95478.22;5073725;28;2003;-53
2023/05/20 00:37:08;;;;;;;;;;;;;;;11.44;93.76;95471.84;5073713;28;1994;-53
2023/05/20 00:39:34;;;;;;;;;;;;;;;11.48;93.60;95474.06;5073622;28;1294;-53
2023/05/20 00:42:02;;;;;;;;;;;;;;;11.60;93.12;95469.25;5073588;28;1243;-53
2023/05/20 00:44:28;;;;;;;;;;;;;;;11.65;93.23;95456.25;5073410;28;1097;-54
2023/05/20 00:46:54;;;;;;;;;;;;;;;11.64;92.97;95464.44;5073599;28;1093;-53
2023/05/20 00:49:22;;;;;;;;;;;;;;;11.16;92.72;95465.84;5073844;28;1020;-53
2023/05/20 00:51:48;;;;;;;;;;;;;;;11.02;94.29;95469.91;5073844;28;1019;-54
2023/05/20 00:54:14;;;;;;;;;;;;;;;10.87;94.85;95470.47;5073660;28;1018;-53
2023/05/20 00:56:41;;;;;;;;;;;;;;;10.98;94.63;95468.53;5073265;28;1992;-53
2023/05/20 00:59:08;;;;;;;;;;;;;;;11.09;94.59;95468.28;5073760;28;1033;-53
2023/05/20 01:01:34;;;;;;;;;;;;;;;11.26;93.91;95458.53;5073537;28;1061;-54
2023/05/20 01:04:00;;;;;;;;;;;;;;;11.24;94.56;95465.88;5073683;28;974;-53
2023/05/20 01:06:27;;;;;;;;;;;;;;;11.11;93.84;95453.75;5073577;28;982;-53
2023/05/20 01:08:53;;;;;;;;;;;;;;;11.00;94.10;95462.03;5073095;28;1604;-54
2023/05/20 01:11:25;;;;;;;;;;;;;;;11.05;94.40;95458.91;5073358;28;953;-54
2023/05/20 01:13:54;;;;;;;;;;;;;;;11.03;93.28;95456.38;5073644;28;954;-53
2023/05/20 01:16:23;;;;;;;;;;;;;;;11.03;93.60;95461.72;5073081;28;1996;-54
2023/05/20 01:18:50;;;;;;;;;;;;;;;10.74;94.87;95467.34;5073437;28;977;-54
2023/05/20 01:21:16;;;;;;;;;;;;;;;10.67;96.42;95467.13;5073349;28;1210;-53
2023/05/20 01:23:42;;;;;;;;;;;;;;;10.89;95.73;95471.16;5073437;28;1147;-53
2023/05/20 01:26:12;;;;;;;;;;;;;;;10.92;94.86;95462.81;5073287;28;1060;-53
2023/05/20 01:28:38;;;;;;;;;;;;;;;10.90;95.46;95464.78;5073459;28;1057;-54
2023/05/20 01:31:08;;;;;;;;;;;;;;;11.06;94.44;95461.41;5073020;28;1081;-53
2023/05/20 01:33:35;;;;;;;;;;;;;;;11.14;94.11;95455.28;5073399;28;1180;-54
2023/05/20 01:36:01;;;;;;;;;;;;;;;11.21;93.47;95442.97;5073243;28;1914;-53
2023/05/20 01:38:27;;;;;;;;;;;;;;;10.80;92.00;95455.19;5073255;28;1021;-54
2023/05/20 01:40:54;;;;;;;;;;;;;;;10.48;93.47;95456.59;5073218;28;997;-53
2023/05/20 01:43:20;;;;;;;;;;;;;;;10.51;94.61;95450.94;5072838;28;1295;-54
2023/05/20 01:45:46;;;;;;;;;;;;;;;10.38;96.12;95456.66;5073159;28;965;-54
2023/05/20 01:48:12;;;;;;;;;;;;;;;10.60;95.94;95459.88;5072943;28;965;-54
2023/05/20 01:50:39;;;;;;;;;;;;;;;10.72;95.11;95459.47;5072832;28;1085;-54
2023/05/20 01:53:07;;;;;;;;;;;;;;;10.87;94.71;95457.09;5073167;28;1009;-54
2023/05/20 01:55:33;;;;;;;;;;;;;;;10.95;93.96;95461.66;5072876;28;974;-54
2023/05/20 01:57:59;;;;;;;;;;;;;;;10.93;93.70;95455.63;5072889;28;1983;-54
2023/05/20 02:00:25;;;;;;;;;;;;;;;10.97;93.80;95456.16;5073007;28;1031;-53
2023/05/20 02:02:51;;;;;;;;;;;;;;;10.66;92.13;95453.91;5072889;28;1020;-54
2023/05/20 02:05:17;;;;;;;;;;;;;;;10.46;93.11;95445.22;5072698;28;1050;-54
2023/05/20 02:07:43;;;;;;;;;;;;;;;10.39;93.36;95441.47;5072928;28;1098;-54
2023/05/20 02:10:09;;;;;;;;;;;;;;;10.20;94.16;95445.09;5072772;28;1782;-54
2023/05/20 02:12:35;;;;;;;;;;;;;;;9.99;95.90;95456.88;5072818;28;1249;-54
2023/05/20 02:15:02;;;;;;;;;;;;;;;10.08;96.21;95452.50;5073027;28;1029;-53
2023/05/20 02:17:28;;;;;;;;;;;;;;;10.23;95.31;95453.66;5072795;28;2001;-53
2023/05/20 02:19:54;;;;;;;;;;;;;;;10.38;94.78;95445.13;5073201;28;1025;-53
2023/05/20 02:22:20;;;;;;;;;;;;;;;10.42;94.75;95447.34;5076189;28;1018;-53
2023/05/20 02:24:46;;;;;;;;;;;;;;;10.46;94.46;95448.72;5076432;28;1085;-53
2023/05/20 02:27:12;;;;;;;;;;;;;;;10.58;94.65;95446.66;5076194;28;1027;-53
2023/05/20 02:29:38;;;;;;;;;;;;;;;10.39;96.77;95441.47;5076118;28;1042;-52
2023/05/20 02:32:05;;;;;;;;;;;;;;;10.37;96.53;95441.63;5076172;28;1060;-53
2023/05/20 02:34:31;;;;;;;;;;;;;;;10.57;95.78;95436.97;5076071;28;1281;-53
2023/05/20 02:36:57;;;;;;;;;;;;;;;10.62;95.46;95442.66;5076253;28;1902;-53
2023/05/20 02:39:23;;;;;;;;;;;;;;;10.35;93.84;95435.59;5058260;28;1062;-53
2023/05/20 02:41:49;;;;;;;;;;;;;;;10.19;94.96;95449.59;5076065;28;1021;-53
2023/05/20 02:44:15;;;;;;;;;;;;;;;10.24;95.44;95433.09;5075680;28;1093;-53
2023/05/20 02:46:42;;;;;;;;;;;;;;;10.35;95.71;95428.41;5076176;28;1024;-53
2023/05/20 02:49:08;;;;;;;;;;;;;;;10.23;95.24;95437.63;5058079;28;1050;-53
2023/05/20 02:51:35;;;;;;;;;;;;;;;9.93;97.64;95450.31;5075724;28;1033;-53
2023/05/20 02:54:01;;;;;;;;;;;;;;;10.01;97.61;95459.41;5075929;28;958;-53
2023/05/20 02:56:27;;;;;;;;;;;;;;;10.00;97.37;95457.72;5075715;28;1910;-53
2023/05/20 02:58:53;;;;;;;;;;;;;;;10.25;96.57;95449.00;5075592;28;1014;-53
2023/05/20 03:01:19;;;;;;;;;;;;;;;10.34;95.84;95472.16;5075499;28;1101;-53
2023/05/20 03:03:45;;;;;;;;;;;;;;;10.33;95.90;95475.00;5075820;28;1021;-53
2023/05/20 03:06:11;;;;;;;;;;;;;;;10.18;95.81;95477.31;5075709;28;1037;-53
2023/05/20 03:08:38;;;;;;;;;;;;;;;10.32;96.05;95471.47;5075671;28;1375;-53
2023/05/20 03:11:04;;;;;;;;;;;;;;;10.45;95.37;95465.78;5075286;28;930;-53
2023/05/20 03:13:30;;;;;;;;;;;;;;;10.56;95.37;95470.03;5075607;28;1052;-53
2023/05/20 03:15:56;;;;;;;;;;;;;;;10.26;93.67;95480.09;5075335;28;1922;-53
2023/05/20 03:18:22;;;;;;;;;;;;;;;9.90;95.08;95479.16;5075130;28;1030;-53
2023/05/20 03:20:48;;;;;;;;;;;;;;;9.85;95.36;95482.28;5075501;28;1136;-54
2023/05/20 03:23:14;;;;;;;;;;;;;;;9.89;95.89;95459.63;5075190;28;1038;-54
2023/05/20 03:25:40;;;;;;;;;;;;;;;10.05;94.88;95490.19;5075216;28;1005;-54
2023/05/20 03:28:06;;;;;;;;;;;;;;;10.01;96.44;95486.13;5075186;28;966;-54
2023/05/20 03:30:32;;;;;;;;;;;;;;;10.20;96.25;95493.19;5075027;28;1036;-54
2023/05/20 03:32:59;;;;;;;;;;;;;;;10.53;94.90;95486.38;5074096;28;1004;-54
2023/05/20 03:35:25;;;;;;;;;;;;;;;10.70;94.85;95498.09;5074834;28;1194;-54
2023/05/20 03:37:52;;;;;;;;;;;;;;;10.38;91.81;95509.25;5057338;28;1914;-54
2023/05/20 03:40:21;;;;;;;;;;;;;;;10.34;93.69;95522.94;5074576;28;1038;-53
2023/05/20 03:42:48;;;;;;;;;;;;;;;10.51;94.84;95525.81;5074693;28;1254;-54
2023/05/20 03:45:15;;;;;;;;;;;;;;;10.74;94.73;95531.53;5074752;28;957;-54
2023/05/20 03:47:41;;;;;;;;;;;;;;;10.71;93.16;95521.97;5074664;28;1016;-54
2023/05/20 03:50:07;;;;;;;;;;;;;;;10.78;92.87;95514.19;5074826;28;1064;-54
2023/05/20 03:52:33;;;;;;;;;;;;;;;10.79;92.62;95518.53;5074618;28;1041;-54
2023/05/20 03:54:59;;;;;;;;;;;;;;;10.72;92.58;95523.66;5074463;28;1034;-54
2023/05/20 03:57:25;;;;;;;;;;;;;;;10.73;93.48;95517.31;5074225;28;1996;-53
2023/05/20 03:59:51;;;;;;;;;;;;;;;11.01;93.22;95514.56;5074452;28;1006;-54
2023/05/20 04:02:17;;;;;;;;;;;;;;;11.32;92.11;95511.44;5074283;28;1045;-54
2023/05/20 04:04:44;;;;;;;;;;;;;;;11.69;92.17;95504.97;5074301;28;1975;-54
2023/05/20 04:07:10;;;;;;;;;;;;;;;11.80;90.44;95512.75;5074493;28;1061;-54
2023/05/20 04:09:36;;;;;;;;;;;;;;;11.54;90.51;95504.72;5074313;28;1153;-53
2023/05/20 04:12:02;;;;;;;;;;;;;;;11.73;91.09;95506.34;5074446;28;1348;-53
2023/05/20 04:14:28;;;;;;;;;;;;;;;12.06;90.87;95510.00;5074341;28;966;-54
2023/05/20 04:16:55;;;;;;;;;;;;;;;12.36;90.70;95506.94;5073929;28;1906;-54
2023/05/20 04:19:22;;;;;;;;;;;;;;;12.50;90.25;95507.16;5074307;28;1059;-54
2023/05/20 04:21:48;;;;;;;;;;;;;;;12.43;91.46;95511.50;5074077;28;970;-54
2023/05/20 04:24:15;;;;;;;;;;;;;;;12.55;90.95;95512.00;5074085;28;958;-54
2023/05/20 04:26:41;;;;;;;;;;;;;;;12.68;90.78;95504.31;5074052;28;1009;-54
2023/05/20 04:29:07;;;;;;;;;;;;;;;13.01;90.79;95507.06;5073814;28;1057;-54
2023/05/20 04:31:33;;;;;;;;;;;;;;;13.24;88.75;95512.59;5074034;28;1015;-54
2023/05/20 04:33:59;;;;;;;;;;;;;;;13.41;87.54;95516.13;5073751;28;1010;-54
2023/05/20 04:36:27;;;;;;;;;;;;;;;13.62;86.85;95520.09;5073871;28;1910;-54
2023/05/20 04:38:54;;;;;;;;;;;;;;;13.74;86.01;95528.66;5073944;28;961;-54
2023/05/20 04:41:20;;;;;;;;;;;;;;;13.76;84.25;95521.28;5073693;28;1052;-54
2023/05/20 04:43:46;;;;;;;;;;;;;;;13.88;84.50;95522.56;5073183;28;1089;-54
2023/05/20 04:46:12;;;;;;;;;;;;;;;13.92;83.51;95515.81;5073874;28;1058;-54
2023/05/20 04:48:38;;;;;;;;;;;;;;;14.05;84.40;95512.59;5073562;28;1993;-54
2023/05/20 04:51:05;;;;;;;;;;;;;;;14.11;83.30;95522.66;5073516;28;1986;-54
2023/05/20 04:53:32;;;;;;;;;;;;;;;14.20;83.11;95518.09;5073513;28;970;-54
2023/05/20 04:55:58;;;;;;;;;;;;;;;14.25;83.55;95518.41;5073734;28;1977;-55
2023/05/20 04:58:25;;;;;;;;;;;;;;;14.24;81.65;95520.25;5073367;28;2029;-54
2023/05/20 05:00:51;;;;;;;;;;;;;;;14.50;82.53;95526.38;5073327;28;1065;-55
2023/05/20 05:03:17;;;;;;;;;;;;;;;14.73;79.42;95527.25;5073204;28;1042;-54
2023/05/20 05:05:43;;;;;;;;;;;;;;;14.66;80.10;95525.47;5073321;28;1030;-54
2023/05/20 05:08:12;;;;;;;;;;;;;;;14.69;80.62;95528.63;5073374;28;1669;-54
2023/05/20 05:10:39;;;;;;;;;;;;;;;14.70;79.98;95535.72;5073459;28;970;-54
2023/05/20 05:13:05;;;;;;;;;;;;;;;14.76;79.40;95528.75;5073552;28;1037;-54
2023/05/20 05:15:31;;;;;;;;;;;;;;;14.85;77.21;95527.69;5073410;28;1021;-54
2023/05/20 05:17:57;;;;;;;;;;;;;;;14.70;76.27;95524.09;5073266;28;1989;-54
2023/05/20 05:20:23;;;;;;;;;;;;;;;14.86;79.02;95525.84;5073051;28;1093;-54
2023/05/20 05:22:49;;;;;;;;;;;;;;;14.92;78.03;95517.88;5073254;28;1027;-54
2023/05/20 05:25:15;;;;;;;;;;;;;;;15.20;77.32;95515.50;5072937;28;1117;-54
2023/05/20 05:27:43;;;;;;;;;;;;;;;15.47;76.71;95515.09;5073112;28;1053;-54
2023/05/20 05:30:09;;;;;;;;;;;;;;;15.60;74.80;95513.44;5073261;28;1029;-54
2023/05/20 05:32:36;;;;;;;;;;;;;;;15.85;74.11;95512.41;5072999;28;1585;-54
2023/05/20 05:35:02;;;;;;;;;;;;;;;15.81;73.50;95512.75;5073213;28;1075;-54
2023/05/20 05:37:29;;;;;;;;;;;;;;;16.20;72.10;95513.50;5055083;28;1988;-54
2023/05/20 05:39:55;;;;;;;;;;;;;;;16.34;72.79;95511.81;5072984;28;977;-54
2023/05/20 05:42:21;;;;;;;;;;;;;;;16.39;71.77;95515.63;5072881;28;930;-55
2023/05/20 05:44:47;;;;;;;;;;;;;;;16.71;72.11;95515.38;5072646;28;1212;-55
2023/05/20 05:47:14;;;;;;;;;;;;;;;16.56;71.47;95518.97;5072882;28;1256;-54
2023/05/20 05:49:40;;;;;;;;;;;;;;;16.52;73.34;95514.97;5073089;28;1054;-55
2023/05/20 05:52:06;;;;;;;;;;;;;;;16.49;72.13;95518.03;5073124;28;1012;-54
2023/05/20 05:54:32;;;;;;;;;;;;;;;16.61;70.72;95512.97;5072650;28;1042;-55
2023/05/20 05:56:58;;;;;;;;;;;;;;;16.65;69.43;95513.44;5076958;28;1909;-55
2023/05/20 05:59:24;;;;;;;;;;;;;;;16.67;69.77;95508.69;5076600;28;1114;-55
2023/05/20 06:01:50;;;;;;;;;;;;;;;17.36;71.31;95511.72;5058876;28;1610;-54
2023/05/20 06:04:16;;;;;;;;;;;;;;;17.88;69.26;95520.44;5076763;28;1013;-55
2023/05/20 06:06:43;;;;;;;;;;;;;;;17.91;67.39;95509.25;5076547;28;1041;-55
2023/05/20 06:09:09;;;;;;;;;;;;;;;18.31;67.94;95520.31;5076317;28;1327;-54
2023/05/20 06:11:35;;;;;;;;;;;;;;;18.25;69.77;95501.31;5076633;28;1074;-54
2023/05/20 06:14:01;;;;;;;;;;;;;;;18.53;69.98;95507.50;5076376;28;1013;-55
2023/05/20 06:16:28;;;;;;;;;;;;;;;18.67;68.43;95505.69;5076198;28;2015;-54
2023/05/20 06:18:56;;;;;;;;;;;;;;;18.71;69.55;95503.41;5076645;28;1033;-54
2023/05/20 06:21:23;;;;;;;;;;;;;;;18.82;67.38;95500.13;5076373;28;973;-54
2023/05/20 06:23:49;;;;;;;;;;;;;;;18.94;69.23;95494.13;5076257;28;1052;-54
2023/05/20 06:26:15;;;;;;;;;;;;;;;19.04;68.17;95491.84;5076143;28;1038;-55
2023/05/20 06:28:41;;;;;;;;;;;;;;;18.99;67.99;95500.59;5076138;28;1048;-55
2023/05/20 06:31:07;;;;;;;;;;;;;;;19.30;66.38;95491.88;5058693;28;1049;-55
2023/05/20 06:33:33;;;;;;;;;;;;;;;19.47;66.87;95496.91;5076337;28;1044;-55
2023/05/20 06:36:00;;;;;;;;;;;;;;;19.46;65.03;95500.63;5058570;28;1980;-55
2023/05/20 06:38:26;;;;;;;;;;;;;;;19.37;64.45;95499.16;5076148;28;1016;-54
2023/05/20 06:40:52;;;;;;;;;;;;;;;19.65;66.43;95498.97;5075901;28;1037;-54
2023/05/20 06:43:18;;;;;;;;;;;;;;;19.84;63.52;95498.19;5075616;28;1101;-55
2023/05/20 06:45:44;;;;;;;;;;;;;;;20.00;65.04;95501.50;5076146;28;1045;-54
2023/05/20 06:48:11;;;;;;;;;;;;;;;20.04;63.63;95492.69;5058200;28;1108;-55
2023/05/20 06:50:37;;;;;;;;;;;;;;;20.61;61.56;95498.41;5058159;28;1473;-54
2023/05/20 06:53:03;;;;;;;;;;;;;;;20.57;60.19;95491.72;5075935;28;1033;-55
2023/05/20 06:55:29;;;;;;;;;;;;;;;20.90;58.91;95489.91;5076018;28;1032;-55
2023/05/20 06:57:55;;;;;;;;;;;;;;;21.02;58.69;95482.75;5075559;28;1987;-54
2023/05/20 07:00:22;;;;;;;;;;;;;;;21.36;58.74;95483.34;5057866;28;1038;-54
2023/05/20 07:02:48;;;;;;;;;;;;;;;21.82;56.12;95482.16;5075828;28;1009;-54
2023/05/20 07:05:14;;;;;;;;;;;;;;;21.84;56.21;95482.78;5075685;28;1037;-54
2023/05/20 07:07:40;;;;;;;;;;;;;;;22.09;55.82;95481.91;5075042;28;1034;-55
2023/05/20 07:10:06;;;;;;;;;;;;;;;22.10;57.61;95472.66;5075364;28;1304;-55
2023/05/20 07:12:32;;;;;;;;;;;;;;;22.19;56.26;95482.22;5075083;28;1093;-54
2023/05/20 07:14:59;;;;;;;;;;;;;;;22.25;54.92;95481.34;5075526;28;1031;-54
2023/05/20 07:17:25;;;;;;;;;;;;;;;21.87;52.26;95474.16;5075067;28;1994;-55
2023/05/20 07:19:51;;;;;;;;;;;;;;;21.83;53.76;95465.63;5075297;28;974;-55
2023/05/20 07:22:17;;;;;;;;;;;;;;;22.20;54.52;95467.56;5074949;28;1042;-55
2023/05/20 07:24:44;;;;;;;;;;;;;;;22.72;51.86;95470.72;5075119;28;1219;-55
2023/05/20 07:27:10;;;;;;;;;;;;;;;22.70;53.47;95461.94;5074967;28;970;-55
2023/05/20 07:29:36;;;;;;;;;;;;;;;22.37;51.81;95455.03;5057530;28;973;-54
2023/05/20 07:32:04;;;;;;;;;;;;;;;22.39;52.31;95443.91;5075246;28;1036;-55
2023/05/20 07:34:30;;;;;;;;;;;;;;;22.70;50.58;95445.59;5074931;28;1038;-55
2023/05/20 07:36:56;;;;;;;;;;;;;;;22.76;52.53;95439.22;5057142;28;1914;-54
2023/05/20 07:39:23;;;;;;;;;;;;;;;23.29;52.79;95431.34;5074992;28;962;-54
2023/05/20 07:41:49;;;;;;;;;;;;;;;23.26;51.05;95432.66;5074664;28;1058;-55
2023/05/20 07:44:17;;;;;;;;;;;;;;;23.68;50.88;95443.53;5074558;28;1093;-54
2023/05/20 07:46:43;;;;;;;;;;;;;;;23.94;50.07;95439.53;5074846;28;1020;-54
2023/05/20 07:49:10;;;;;;;;;;;;;;;24.12;49.09;95433.09;5074772;28;970;-55
2023/05/20 07:51:36;;;;;;;;;;;;;;;24.25;50.11;95425.72;5074774;28;974;-55
2023/05/20 07:54:02;;;;;;;;;;;;;;;24.15;49.57;95424.44;5074562;28;1130;-54
2023/05/20 07:56:28;;;;;;;;;;;;;;;24.34;47.91;95416.91;5074274;28;1913;-54
2023/05/20 07:58:57;;;;;;;;;;;;;;;24.11;48.49;95408.75;5056911;28;1054;-54
2023/05/20 08:01:23;;;;;;;;;;;;;;;24.36;48.10;95406.56;5074255;28;1129;-54
2023/05/20 08:03:49;;;;;;;;;;;;;;;24.48;47.84;95405.69;5074595;28;1021;-55
2023/05/20 08:06:16;;;;;;;;;;;;;;;24.80;46.75;95408.00;5074346;28;957;-54
2023/05/20 08:08:42;;;;;;;;;;;;;;;25.02;44.68;95405.38;5074136;28;1241;-54
2023/05/20 08:11:08;;;;;;;;;;;;;;;24.96;45.47;95395.44;5074108;28;1080;-54
2023/05/20 08:13:35;;;;;;;;;;;;;;;24.94;46.09;95392.94;5074317;28;989;-55
2023/05/20 08:16:02;;;;;;;;;;;;;;;24.51;46.41;95397.00;5074236;28;1914;-55
2023/05/20 08:18:29;;;;;;;;;;;;;;;24.94;46.27;95393.75;5073451;28;1005;-55
2023/05/20 08:20:55;;;;;;;;;;;;;;;24.84;46.35;95387.28;5056337;28;1029;-54
2023/05/20 08:23:21;;;;;;;;;;;;;;;24.93;45.85;95391.28;5074310;28;1039;-54
2023/05/20 08:25:47;;;;;;;;;;;;;;;25.14;44.24;95396.03;5056445;28;1030;-54
2023/05/20 08:28:13;;;;;;;;;;;;;;;25.17;43.40;95396.63;5073991;28;974;-54
2023/05/20 08:30:40;;;;;;;;;;;;;;;24.78;44.06;95391.00;5070187;28;1730;-54
2023/05/20 08:33:06;;;;;;;;;;;;;;;24.80;43.06;95392.41;5059840;28;990;-55
2023/05/20 08:35:32;;;;;;;;;;;;;;;24.85;42.46;95389.78;5069556;28;963;-56
2023/05/20 08:38:00;;;;;;;;;;;;;;;25.24;41.41;95391.84;5065621;28;2117;-56
2023/05/20 08:40:26;;;;;;;;;;;;;;;25.37;44.27;95380.59;5054809;28;1049;-55
2023/05/20 08:42:52;;;;;;;;;;;;;;;25.27;44.41;95377.66;5063831;28;1085;-55
2023/05/20 08:45:20;;;;;;;;;;;;;;;25.41;41.33;95381.75;5073872;28;1045;-55
2023/05/20 08:47:46;;;;;;;;;;;;;;;25.51;43.01;95379.16;5073583;28;1224;-55
2023/05/20 08:50:13;;;;;;;;;;;;;;;25.51;42.33;95370.94;5073830;28;1017;-55
2023/05/20 08:52:47;;;;;;;;;;;;;;;25.55;43.46;95365.81;5073722;28;1051;-54
2023/05/20 08:55:16;;;;;;;;;;;;;;;25.68;44.62;95359.97;5058135;28;1046;-55
2023/05/20 08:57:44;;;;;;;;;;;;;;;25.69;41.25;95369.88;5053536;28;1988;-55
2023/05/20 09:00:12;;;;;;;;;;;;;;;25.49;43.32;95369.56;5053577;28;1001;-54
2023/05/20 09:02:38;;;;;;;;;;;;;;;25.12;41.15;95370.03;5053704;28;1025;-54
2023/05/20 09:05:05;;;;;;;;;;;;;;;25.59;42.70;95360.66;5053671;28;1004;-54
2023/05/20 09:07:31;;;;;;;;;;;;;;;25.77;42.97;95354.91;5053138;28;1006;-54
2023/05/20 09:09:57;;;;;;;;;;;;;;;26.08;40.89;95361.66;5051010;28;1348;-55
2023/05/20 09:12:23;;;;;;;;;;;;;;;25.86;40.24;95358.88;5073601;28;1041;-54
2023/05/20 09:14:49;;;;;;;;;;;;;;;25.69;41.08;95356.19;5039197;28;959;-54
2023/05/20 09:17:17;;;;;;;;;;;;;;;25.58;40.87;95365.31;5073163;28;1989;-54
2023/05/20 09:19:43;;;;;;;;;;;;;;;25.48;41.67;95354.22;5073161;28;1022;-55
2023/05/20 09:22:09;;;;;;;;;;;;;;;25.69;42.27;95344.41;5073048;28;1061;-56
2023/05/20 09:24:35;;;;;;;;;;;;;;;25.84;41.89;95347.34;5073106;28;1041;-55
2023/05/20 09:27:01;;;;;;;;;;;;;;;26.01;42.45;95341.03;5073059;28;1054;-55
2023/05/20 09:29:27;;;;;;;;;;;;;;;26.06;40.03;95344.66;5074821;28;1084;-55
2023/05/20 09:31:54;;;;;;;;;;;;;;;25.69;40.53;95338.94;5077611;28;1063;-55
2023/05/20 09:34:20;;;;;;;;;;;;;;;25.33;38.24;95338.38;5077253;28;1052;-55
2023/05/20 09:36:49;;;;;;;;;;;;;;;25.45;38.74;95332.81;5077042;28;1993;-55
2023/05/20 09:39:17;;;;;;;;;;;;;;;25.77;41.37;95313.84;5077364;28;1095;-55
2023/05/20 09:42:05;;;;;;;;;;;;;;;25.95;41.05;95318.22;5077096;28;1062;-55
2023/05/20 09:44:32;;;;;;;;;;;;;;;26.00;43.46;95306.50;5076841;28;1089;-55
2023/05/20 09:47:00;;;;;;;;;;;;;;;25.93;41.57;95300.38;5076979;28;1116;-55
2023/05/20 09:49:27;;;;;;;;;;;;;;;25.59;40.71;95308.66;5077073;28;1022;-55
2023/05/20 09:51:55;;;;;;;;;;;;;;;25.55;40.14;95308.31;5077104;28;1018;-54
2023/05/20 09:54:23;;;;;;;;;;;;;;;25.92;43.51;95287.78;5076739;28;1034;-55
2023/05/20 09:56:49;;;;;;;;;;;;;;;26.15;44.06;95287.50;5076714;28;1910;-54
2023/05/20 09:59:16;;;;;;;;;;;;;;;26.30;43.16;95281.38;5076665;28;1081;-55
2023/05/20 10:01:43;;;;;;;;;;;;;;;26.27;42.56;95270.94;5076657;28;1058;-55
2023/05/20 10:04:11;;;;;;;;;;;;;;;25.99;43.56;95274.69;5076631;28;1773;-55
2023/05/20 10:06:43;;;;;;;;;;;;;;;25.73;40.70;95277.09;5076497;28;1108;-55
2023/05/20 10:09:09;;;;;;;;;;;;;;;25.39;40.77;95281.81;5076471;28;1296;-55
2023/05/20 10:11:53;;;;;;;;;;;;;;;25.10;42.92;95270.97;5076495;28;1670;-55
2023/05/20 10:14:32;;;;;;;;;;;;;;;25.48;42.33;95261.97;5076700;28;977;-55
2023/05/20 10:17:16;;;;;;;;;;;;;;;25.98;41.01;95260.19;5076331;28;1918;-55
2023/05/20 10:19:43;;;;;;;;;;;;;;;26.37;41.06;95240.91;5076692;28;977;-56
2023/05/20 10:22:13;;;;;;;;;;;;;;;26.37;40.89;95237.31;5076232;28;1101;-55
2023/05/20 10:24:40;;;;;;;;;;;;;;;26.33;42.18;95239.75;5076416;28;985;-55
2023/05/20 10:27:08;;;;;;;;;;;;;;;26.50;41.47;95231.41;5076294;28;1029;-55
2023/05/20 10:29:41;;;;;;;;;;;;;;;26.44;41.56;95235.19;5076362;28;1013;-55
2023/05/20 10:32:08;;;;;;;;;;;;;;;26.15;40.39;95223.66;5076109;28;1212;-55
2023/05/20 10:34:44;;;;;;;;;;;;;;;26.11;40.38;95231.56;5075700;28;974;-55
2023/05/20 10:37:19;;;;;;;;;;;;;;;26.29;40.18;95222.16;5075913;28;2277;-56
2023/05/20 10:39:45;;;;;;;;;;;;;;;26.50;41.92;95217.72;5076291;28;966;-55
2023/05/20 10:42:11;;;;;;;;;;;;;;;25.82;40.29;95222.69;5075493;28;1418;-55
2023/05/20 10:44:44;;;;;;;;;;;;;;;25.24;38.46;95225.78;5075770;28;1089;-56
2023/05/20 10:47:11;;;;;;;;;;;;;;;24.92;40.85;95228.28;5075720;28;1066;-56
2023/05/20 10:49:47;;;;;;;;;;;;;;;25.23;38.69;95213.19;5076235;28;1036;-55
2023/05/20 10:52:13;;;;;;;;;;;;;;;25.68;38.86;95211.31;5075665;28;939;-55
2023/05/20 10:54:46;;;;;;;;;;;;;;;25.98;35.67;95212.81;5075916;28;1026;-55
2023/05/20 10:57:12;;;;;;;;;;;;;;;26.20;36.68;95208.13;5075793;28;2001;-56
2023/05/20 10:59:39;;;;;;;;;;;;;;;25.97;38.91;95200.16;5075653;28;1028;-54
2023/05/20 11:02:07;;;;;;;;;;;;;;;25.40;37.80;95207.69;5075616;28;1020;-54
2023/05/20 11:04:33;;;;;;;;;;;;;;;24.96;37.82;95198.53;5075513;28;1033;-54
2023/05/20 11:06:59;;;;;;;;;;;;;;;24.85;40.69;95189.31;5075648;28;972;-54
2023/05/20 11:09:25;;;;;;;;;;;;;;;24.80;40.20;95194.72;5075188;28;1547;-54
2023/05/20 11:11:52;;;;;;;;;;;;;;;24.68;40.78;95192.91;5075693;28;1001;-54
2023/05/20 11:14:18;;;;;;;;;;;;;;;24.72;40.13;95194.06;5075054;28;1716;-54
2023/05/20 11:16:45;;;;;;;;;;;;;;;24.87;38.54;95196.22;5075336;28;1987;-54
2023/05/20 11:19:15;;;;;;;;;;;;;;;25.41;39.69;95197.56;5075481;28;939;-54
2023/05/20 11:21:42;;;;;;;;;;;;;;;25.79;38.47;95190.38;5075162;28;1045;-54
2023/05/20 11:24:08;;;;;;;;;;;;;;;25.56;37.36;95200.50;5075407;28;1008;-54
2023/05/20 11:26:34;;;;;;;;;;;;;;;25.32;37.12;95199.88;5075241;28;1036;-54
2023/05/20 11:29:00;;;;;;;;;;;;;;;25.54;38.95;95191.72;5074927;28;1092;-55
2023/05/20 11:31:26;;;;;;;;;;;;;;;25.48;37.88;95193.56;5071963;28;2088;-54
2023/05/20 11:33:53;;;;;;;;;;;;;;;24.76;38.72;95188.94;5057213;28;1043;-54
2023/05/20 11:36:19;;;;;;;;;;;;;;;24.21;40.29;95192.31;5068834;28;1918;-54
2023/05/20 11:38:46;;;;;;;;;;;;;;;23.96;42.11;95202.53;5075118;28;1048;-54
2023/05/20 11:41:12;;;;;;;;;;;;;;;22.97;43.54;95230.69;5074744;28;1093;-54
2023/05/20 11:43:38;;;;;;;;;;;;;;;22.38;45.74;95230.56;5074608;28;1242;-53
2023/05/20 11:46:04;;;;;;;;;;;;;;;22.14;46.68;95223.38;5072986;28;2110;-53
2023/05/20 11:48:30;;;;;;;;;;;;;;;22.00;46.38;95234.44;5064833;28;1038;-53
2023/05/20 11:50:56;;;;;;;;;;;;;;;21.76;47.64;95238.97;5059427;28;2028;-53
2023/05/20 11:53:23;;;;;;;;;;;;;;;21.59;47.70;95240.66;5058743;28;1032;-53
2023/05/20 11:55:51;;;;;;;;;;;;;;;21.44;47.60;95243.75;5071341;28;1104;-56
2023/05/20 11:58:20;;;;;;;;;;;;;;;21.55;47.41;95248.44;5073302;28;1902;-55
2023/05/20 12:00:47;;;;;;;;;;;;;;;21.59;47.75;95238.78;5062092;28;1879;-55
2023/05/20 12:03:13;;;;;;;;;;;;;;;21.66;48.39;95243.28;5060776;28;1874;-54
2023/05/20 12:05:39;;;;;;;;;;;;;;;21.67;48.08;95234.09;5071864;28;1843;-54
2023/05/20 12:08:05;;;;;;;;;;;;;;;22.15;47.59;95230.50;5074383;28;974;-54
2023/05/20 12:10:32;;;;;;;;;;;;;;;22.52;45.54;95227.66;5073274;28;997;-54
2023/05/20 12:12:58;;;;;;;;;;;;;;;23.03;46.72;95225.34;5074208;28;974;-54
2023/05/20 12:15:24;;;;;;;;;;;;;;;23.26;45.31;95221.78;5074267;28;1034;-55
2023/05/20 12:17:51;;;;;;;;;;;;;;;23.03;43.33;95212.56;5073880;28;1985;-54
2023/05/20 12:20:18;;;;;;;;;;;;;;;23.03;45.14;95211.69;5055823;28;966;-54
2023/05/20 12:22:44;;;;;;;;;;;;;;;23.33;45.40;95214.31;5073627;28;1048;-54
2023/05/20 12:25:14;;;;;;;;;;;;;;;23.25;45.16;95209.22;5056110;28;1963;-54
2023/05/20 12:27:41;;;;;;;;;;;;;;;23.21;42.94;95214.34;5074275;28;988;-55
2023/05/20 12:30:08;;;;;;;;;;;;;;;23.14;42.93;95208.16;5074088;28;1001;-54
2023/05/20 12:32:35;;;;;;;;;;;;;;;23.23;43.34;95203.19;5073584;28;1093;-53
2023/05/20 12:35:01;;;;;;;;;;;;;;;23.16;44.19;95200.56;5073625;28;1251;-55
2023/05/20 12:37:27;;;;;;;;;;;;;;;23.05;42.92;95196.81;5073521;28;1930;-54
2023/05/20 12:39:53;;;;;;;;;;;;;;;22.94;43.55;95197.59;5073936;28;1026;-54
2023/05/20 12:42:20;;;;;;;;;;;;;;;22.92;42.18;95186.13;5073602;28;1025;-54
2023/05/20 12:44:46;;;;;;;;;;;;;;;22.79;41.69;95207.06;5073431;28;1303;-54
2023/05/20 12:47:12;;;;;;;;;;;;;;;22.67;42.46;95187.19;5073713;28;954;-54
2023/05/20 12:49:38;;;;;;;;;;;;;;;22.56;42.96;95183.38;5056067;28;1005;-54
2023/05/20 12:52:04;;;;;;;;;;;;;;;22.51;43.09;95179.69;5073764;28;996;-55
2023/05/20 12:54:30;;;;;;;;;;;;;;;22.67;43.88;95168.09;5073333;28;953;-55